Time,TemperatureF,DewpointF,PressureIn,WindDirection,WindDirectionDegrees,WindSpeedMPH,WindSpeedGustMPH,Humidity,HourlyPrecipIn,Conditions,Clouds,dailyrainin,SolarRadiationWatts/m^2,SoftwareType,DateUTC
2013-10-08 00:00:00,54.0,29.0,29.88,NNE,20,3.0,-999.0,38,0.00,,,-99.99,-1.000000,,2013-10-08 07:00:00,
2013-10-08 00:42:00,54.0,29.0,29.88,NNE,20,3.0,-999.0,38,0.00,,,-99.99,-1.000000,,2013-10-08 07:42:00,
2013-10-08 00:52:00,54.0,29.0,29.88,NNE,20,3.0,-999.0,38,0.00,,,-99.99,-1.000000,,2013-10-08 07:52:00,
2013-10-08 01:00:00,54.0,29.0,29.87,NW,312,0.0,-999.0,38,0.00,,,-99.99,-2.100000,,2013-10-08 08:00:00,
2013-10-08 01:42:00,54.0,29.0,29.87,NW,312,0.0,-999.0,38,0.00,,,-99.99,-2.100000,,2013-10-08 08:42:00,
2013-10-08 01:52:00,54.0,29.0,29.87,NW,312,0.0,-999.0,38,0.00,,,-99.99,-2.100000,,2013-10-08 08:52:00,
2013-10-08 02:00:00,54.0,28.0,29.87,NNW,337,2.0,-999.0,36,0.00,,,-99.99,-2.000000,,2013-10-08 09:00:00,
2013-10-08 02:43:00,54.0,28.0,29.87,NNW,337,2.0,-999.0,36,0.00,,,-99.99,-2.000000,,2013-10-08 09:43:00,
2013-10-08 02:53:00,54.0,28.0,29.87,NNW,337,2.0,-999.0,36,0.00,,,-99.99,-2.000000,,2013-10-08 09:53:00,
2013-10-08 03:00:00,53.0,27.0,29.86,SW,222,1.0,-999.0,36,0.00,,,-99.99,-2.700000,,2013-10-08 10:00:00,
2013-10-08 03:42:00,53.0,27.0,29.86,SW,222,1.0,-999.0,36,0.00,,,-99.99,-2.700000,,2013-10-08 10:42:00,
2013-10-08 03:53:00,53.0,27.0,29.86,SW,222,1.0,-999.0,36,0.00,,,-99.99,-2.700000,,2013-10-08 10:53:00,
2013-10-08 04:00:00,51.0,28.0,29.85,North,350,5.0,-999.0,41,0.00,,,-99.99,-3.100000,,2013-10-08 11:00:00,
2013-10-08 04:42:00,51.0,28.0,29.85,North,350,5.0,-999.0,41,0.00,,,-99.99,-3.100000,,2013-10-08 11:42:00,
2013-10-08 04:52:00,51.0,28.0,29.85,North,350,5.0,-999.0,41,0.00,,,-99.99,-3.100000,,2013-10-08 11:52:00,
2013-10-08 05:42:00,47.0,28.0,29.85,SSE,164,1.0,-999.0,47,0.00,,,-99.99,-3.100000,,2013-10-08 12:42:00,
2013-10-08 06:00:00,52.0,25.0,29.85,North,2,6.0,-999.0,35,0.00,,,-99.99,-1.200000,,2013-10-08 13:00:00,
2013-10-08 06:42:00,52.0,25.0,29.85,North,2,6.0,-999.0,35,0.00,,,-99.99,-1.200000,,2013-10-08 13:42:00,
2013-10-08 06:52:00,52.0,25.0,29.85,North,2,6.0,-999.0,35,0.00,,,-99.99,-1.200000,,2013-10-08 13:52:00,
2013-10-08 07:00:00,51.0,25.0,29.85,North,352,7.0,-999.0,35,0.00,,,-99.99,-2.700000,,2013-10-08 14:00:00,
2013-10-08 07:42:00,51.0,25.0,29.85,North,352,7.0,-999.0,35,0.00,,,-99.99,-2.700000,,2013-10-08 14:42:00,
2013-10-08 07:52:00,51.0,25.0,29.85,North,352,7.0,-999.0,35,0.00,,,-99.99,-2.700000,,2013-10-08 14:52:00,
2013-10-08 08:00:00,51.0,25.0,29.85,NNW,339,2.0,-999.0,36,0.00,,,-99.99,12.900000,,2013-10-08 15:00:00,
2013-10-08 08:44:00,51.0,25.0,29.85,NNW,339,2.0,-999.0,36,0.00,,,-99.99,12.900000,,2013-10-08 15:44:00,
2013-10-08 08:53:00,51.0,25.0,29.85,NNW,339,2.0,-999.0,36,0.00,,,-99.99,12.900000,,2013-10-08 15:53:00,
2013-10-08 09:00:00,55.0,28.0,29.85,West,277,2.0,-999.0,35,0.00,,,-99.99,40.900002,,2013-10-08 16:00:00,
2013-10-08 09:42:00,55.0,28.0,29.85,West,277,2.0,-999.0,35,0.00,,,-99.99,40.900002,,2013-10-08 16:42:00,
2013-10-08 09:53:00,55.0,28.0,29.85,West,277,2.0,-999.0,35,0.00,,,-99.99,40.900002,,2013-10-08 16:53:00,
2013-10-08 10:00:00,65.0,28.0,29.85,NNE,32,2.0,-999.0,25,0.00,,,-99.99,407.100006,,2013-10-08 17:00:00,
2013-10-08 10:42:00,65.0,28.0,29.85,NNE,32,2.0,-999.0,25,0.00,,,-99.99,407.100006,,2013-10-08 17:42:00,
2013-10-08 10:52:00,65.0,28.0,29.85,NNE,32,2.0,-999.0,25,0.00,,,-99.99,407.100006,,2013-10-08 17:52:00,
2013-10-08 11:00:00,73.0,27.0,29.84,NW,304,1.0,-999.0,17,0.00,,,-99.99,569.599976,,2013-10-08 18:00:00,
2013-10-08 11:42:00,73.0,27.0,29.84,NW,304,1.0,-999.0,17,0.00,,,-99.99,569.599976,,2013-10-08 18:42:00,
2013-10-08 11:53:00,73.0,27.0,29.84,NW,304,1.0,-999.0,17,0.00,,,-99.99,569.599976,,2013-10-08 18:53:00,
2013-10-08 12:00:00,73.0,29.0,29.83,SW,214,3.0,-999.0,19,0.00,,,-99.99,630.799988,,2013-10-08 19:00:00,
2013-10-08 12:42:00,73.0,29.0,29.83,SW,214,3.0,-999.0,19,0.00,,,-99.99,630.799988,,2013-10-08 19:42:00,
2013-10-08 12:52:00,73.0,29.0,29.83,SW,214,3.0,-999.0,19,0.00,,,-99.99,630.799988,,2013-10-08 19:52:00,
2013-10-08 16:00:00,71.0,30.0,29.76,SW,222,2.0,-999.0,21,0.00,,,-99.99,415.600006,,2013-10-08 23:00:00,
2013-10-08 16:42:00,71.0,30.0,29.76,SW,222,2.0,-999.0,21,0.00,,,-99.99,415.600006,,2013-10-08 23:42:00,
2013-10-08 16:52:00,71.0,30.0,29.76,SW,222,2.0,-999.0,21,0.00,,,-99.99,415.600006,,2013-10-08 23:52:00,
2013-10-08 17:00:00,69.0,30.0,29.75,SW,226,3.0,-999.0,23,0.00,,,-99.99,111.000000,,2013-10-09 00:00:00,
2013-10-08 17:43:00,69.0,30.0,29.75,SW,226,3.0,-999.0,23,0.00,,,-99.99,111.000000,,2013-10-09 00:43:00,
2013-10-08 17:52:00,69.0,30.0,29.75,SW,226,3.0,-999.0,23,0.00,,,-99.99,111.000000,,2013-10-09 00:52:00,
2013-10-08 18:00:00,66.0,31.0,29.72,SSE,156,0.0,-999.0,27,0.00,,,-99.99,49.200001,,2013-10-09 01:00:00,
2013-10-08 18:43:00,66.0,31.0,29.72,SSE,156,0.0,-999.0,27,0.00,,,-99.99,49.200001,,2013-10-09 01:43:00,
2013-10-08 18:52:00,66.0,31.0,29.72,SSE,156,0.0,-999.0,27,0.00,,,-99.99,49.200001,,2013-10-09 01:52:00,
2013-10-08 19:00:00,58.0,30.0,29.71,SW,226,0.0,-999.0,34,0.00,,,-99.99,5.200000,,2013-10-09 02:00:00,
2013-10-08 19:42:00,58.0,30.0,29.71,SW,226,0.0,-999.0,34,0.00,,,-99.99,5.200000,,2013-10-09 02:42:00,
2013-10-08 19:52:00,58.0,30.0,29.71,SW,226,0.0,-999.0,34,0.00,,,-99.99,5.200000,,2013-10-09 02:52:00,
2013-10-08 20:00:00,53.0,32.0,29.70,North,0,0.0,-999.0,43,0.00,,,-99.99,-2.500000,,2013-10-09 03:00:00,
2013-10-08 20:45:00,53.0,32.0,29.70,North,0,0.0,-999.0,43,0.00,,,-99.99,-2.500000,,2013-10-09 03:45:00,
2013-10-08 20:54:00,53.0,32.0,29.70,North,0,0.0,-999.0,43,0.00,,,-99.99,-2.500000,,2013-10-09 03:54:00,
2013-10-08 21:00:00,51.0,34.0,29.70,North,0,0.0,-999.0,51,0.00,,,-99.99,-1.300000,,2013-10-09 04:00:00,
2013-10-08 21:44:00,51.0,34.0,29.70,North,0,0.0,-999.0,51,0.00,,,-99.99,-1.300000,,2013-10-09 04:44:00,
2013-10-08 21:54:00,51.0,34.0,29.70,North,0,0.0,-999.0,51,0.00,,,-99.99,-1.300000,,2013-10-09 04:54:00,
2013-10-08 22:00:00,49.0,35.0,29.68,North,0,0.0,-999.0,58,0.00,,,-99.99,-1.800000,,2013-10-09 05:00:00,
2013-10-08 22:42:00,49.0,35.0,29.68,North,0,0.0,-999.0,58,0.00,,,-99.99,-1.800000,,2013-10-09 05:42:00,
2013-10-08 22:52:00,49.0,35.0,29.68,North,0,0.0,-999.0,58,0.00,,,-99.99,-1.800000,,2013-10-09 05:52:00,
2013-10-08 23:42:00,46.0,34.0,29.66,North,0,0.0,-999.0,61,0.00,,,-99.99,-1.300000,,2013-10-09 06:42:00,